createdAt,value
2017-04-27T00:01:02.987Z,40.65
2017-04-27T00:03:30.807Z,43.15
2017-04-27T00:05:57.862Z,42.37
2017-04-27T00:08:24.905Z,40.97
2017-04-27T00:10:51.959Z,41.00
2017-04-27T00:13:19.124Z,38.53
2017-04-27T00:15:46.189Z,44.23
2017-04-27T00:18:13.256Z,39.36
2017-04-27T00:20:40.404Z,41.32
2017-04-27T00:23:07.567Z,42.04
2017-04-27T00:25:34.599Z,40.42
2017-04-27T00:28:01.671Z,44.20
2017-04-27T00:30:28.724Z,39.74
2017-04-27T00:32:55.815Z,37.92
2017-04-27T00:35:22.897Z,38.30
2017-04-27T00:37:50.000Z,38.98
2017-04-27T00:40:17.844Z,39.24
2017-04-27T00:42:44.984Z,42.56
2017-04-27T00:45:12.051Z,40.37
2017-04-27T00:47:39.095Z,39.18
2017-04-27T00:50:06.144Z,41.27
2017-04-27T00:52:33.243Z,39.88
2017-04-27T00:55:01.039Z,39.23
2017-04-27T00:57:28.075Z,40.52
2017-04-27T00:59:55.931Z,44.48
2017-04-27T01:02:23.716Z,41.76
2017-04-27T01:04:50.780Z,39.53
2017-04-27T01:07:17.832Z,42.82
2017-04-27T01:09:44.909Z,42.15
2017-04-27T01:12:12.116Z,48.76
2017-04-27T01:14:40.062Z,49.90
2017-04-27T01:17:07.128Z,44.08
2017-04-27T01:19:34.202Z,46.36
2017-04-27T01:22:02.000Z,47.07
2017-04-27T01:24:29.096Z,43.95
2017-04-27T01:26:56.140Z,43.04
2017-04-27T01:29:23.368Z,47.55
2017-04-27T01:31:50.407Z,43.10
2017-04-27T01:34:17.582Z,46.28
2017-04-27T01:36:44.647Z,44.80
2017-04-27T01:39:11.855Z,49.33
2017-04-27T01:41:39.692Z,45.57
2017-04-27T01:44:06.740Z,52.42
2017-04-27T01:46:33.784Z,46.20
2017-04-27T01:49:00.872Z,50.23
2017-04-27T01:51:28.732Z,47.93
2017-04-27T01:53:55.772Z,45.18
2017-04-27T01:56:22.879Z,48.58
2017-04-27T01:58:49.939Z,48.20
2017-04-27T02:01:16.991Z,47.75
2017-04-27T02:03:44.021Z,44.47
2017-04-27T02:06:11.844Z,43.80
2017-04-27T02:08:38.872Z,43.02
2017-04-27T02:11:05.936Z,46.13
2017-04-27T02:13:33.001Z,49.06
2017-04-27T02:16:00.108Z,49.26
2017-04-27T02:18:28.012Z,44.03
2017-04-27T02:20:55.048Z,48.42
2017-04-27T02:23:22.101Z,44.32
2017-04-27T02:25:49.169Z,48.85
2017-04-27T02:28:16.216Z,48.25
2017-04-27T02:30:44.050Z,47.93
2017-04-27T02:33:11.111Z,46.85
2017-04-27T02:35:38.901Z,54.15
2017-04-27T02:38:06.024Z,52.77
2017-04-27T02:40:33.296Z,49.72
2017-04-27T02:43:01.109Z,52.08
2017-04-27T02:45:28.176Z,45.92
2017-04-27T02:47:55.272Z,45.72
2017-04-27T02:50:23.303Z,44.78
2017-04-27T02:52:50.384Z,43.58
2017-04-27T02:55:17.532Z,43.52
2017-04-27T02:57:44.588Z,49.28
2017-04-27T03:00:11.623Z,50.07
2017-04-27T03:02:38.670Z,45.18
2017-04-27T03:05:05.819Z,45.18
2017-04-27T03:07:32.898Z,49.50
2017-04-27T03:12:33.728Z,44.38
2017-04-27T03:15:00.832Z,44.43
2017-04-27T03:17:28.615Z,49.28
2017-04-27T03:19:56.496Z,44.87
2017-04-27T03:22:23.711Z,45.87
2017-04-27T03:24:50.753Z,46.65
2017-04-27T03:27:17.840Z,58.20
2017-04-27T03:29:45.748Z,59.55
2017-04-27T03:32:12.799Z,50.80
2017-04-27T03:34:39.876Z,51.88
2017-04-27T03:37:06.911Z,49.62
2017-04-27T03:39:33.936Z,50.43
2017-04-27T03:42:01.007Z,51.80
2017-04-27T03:44:28.049Z,50.75
2017-04-27T03:46:55.083Z,49.60
2017-04-27T03:49:22.892Z,48.13
2017-04-27T03:51:49.961Z,46.70
2017-04-27T03:54:17.115Z,46.07
2017-04-27T03:56:44.203Z,45.60
2017-04-27T03:59:11.259Z,41.10
2017-04-27T04:01:38.334Z,40.17
2017-04-27T04:04:05.378Z,44.20
2017-04-27T04:06:33.165Z,46.73
2017-04-27T04:09:00.207Z,32.50
2017-04-27T04:11:28.033Z,29.65
2017-04-27T04:13:55.151Z,30.22
2017-04-27T04:16:22.262Z,33.68
2017-04-27T04:18:56.349Z,34.50
2017-04-27T04:21:23.403Z,32.82
2017-04-27T04:23:50.536Z,36.93
2017-04-27T04:26:17.561Z,36.85
2017-04-27T04:28:44.591Z,31.10
2017-04-27T04:31:11.620Z,32.67
2017-04-27T04:33:38.657Z,33.32
2017-04-27T04:36:05.744Z,36.57
2017-04-27T04:38:32.810Z,38.28
2017-04-27T04:41:00.642Z,33.05
2017-04-27T04:43:27.680Z,35.47
2017-04-27T04:45:54.816Z,37.77
2017-04-27T04:48:21.863Z,33.27
2017-04-27T04:50:48.945Z,40.48
2017-04-27T04:53:16.003Z,39.82
2017-04-27T04:55:43.048Z,38.53
2017-04-27T04:58:10.124Z,44.73
2017-04-27T05:00:37.215Z,40.05
2017-04-27T05:03:04.985Z,42.35
2017-04-27T05:05:32.761Z,40.88
2017-04-27T05:08:00.592Z,42.77
2017-04-27T05:10:27.668Z,40.20
2017-04-27T05:12:54.722Z,39.92
2017-04-27T05:15:21.808Z,41.63
2017-04-27T05:17:48.864Z,37.15
2017-04-27T05:20:15.952Z,38.30
2017-04-27T05:22:43.000Z,39.70
2017-04-27T05:25:10.067Z,37.20
2017-04-27T05:27:37.115Z,40.08
2017-04-27T05:30:04.160Z,39.40
2017-04-27T05:32:31.244Z,36.33
2017-04-27T05:34:58.287Z,35.05
2017-04-27T05:37:25.435Z,34.28
2017-04-27T05:39:52.486Z,40.47
2017-04-27T05:42:19.563Z,31.92
2017-04-27T05:44:46.648Z,30.75
2017-04-27T05:47:13.711Z,33.73
2017-04-27T05:49:40.744Z,34.57
2017-04-27T05:52:07.828Z,38.17
2017-04-27T05:54:35.848Z,35.82
2017-04-27T05:57:02.955Z,31.28
2017-04-27T05:59:30.708Z,29.67
2017-04-27T06:01:57.752Z,34.43
2017-04-27T06:04:24.800Z,28.82
2017-04-27T06:06:52.579Z,32.42
2017-04-27T06:09:19.861Z,28.62
2017-04-27T06:11:46.931Z,28.95
2017-04-27T06:14:14.023Z,29.87
2017-04-27T06:16:41.940Z,27.92
2017-04-27T06:19:08.976Z,34.38
2017-04-27T06:21:36.000Z,26.52
2017-04-27T06:24:03.829Z,24.58
2017-04-27T06:26:30.873Z,24.62
2017-04-27T06:28:57.912Z,24.50
2017-04-27T06:31:24.984Z,21.42
2017-04-27T06:33:52.077Z,21.23
2017-04-27T06:36:19.933Z,21.37
2017-04-27T06:38:47.615Z,19.78
2017-04-27T06:41:15.469Z,17.42
2017-04-27T06:43:42.580Z,21.95
2017-04-27T06:46:09.852Z,17.38
2017-04-27T06:48:36.972Z,20.05
2017-04-27T06:51:04.218Z,17.50
2017-04-27T06:53:31.589Z,19.25
2017-04-27T06:55:58.684Z,21.00
2017-04-27T06:58:25.728Z,16.53
2017-04-27T07:00:52.824Z,16.67
2017-04-27T07:03:19.908Z,15.15
2017-04-27T07:05:47.048Z,17.98
2017-04-27T07:08:14.842Z,15.95
2017-04-27T07:10:41.884Z,15.87
2017-04-27T07:13:08.975Z,13.93
2017-04-27T07:15:36.084Z,16.18
2017-04-27T07:18:03.153Z,17.35
2017-04-27T07:20:30.223Z,17.55
2017-04-27T07:22:57.291Z,17.82
2017-04-27T07:25:24.352Z,14.15
2017-04-27T07:27:51.493Z,14.85
2017-04-27T07:30:18.573Z,16.73
2017-04-27T07:32:45.638Z,15.88
2017-04-27T07:35:12.771Z,13.63
2017-04-27T07:37:40.271Z,12.56
2017-04-27T07:40:07.356Z,15.73
2017-04-27T07:42:34.477Z,14.38
2017-04-27T07:45:02.413Z,14.75
2017-04-27T07:47:29.671Z,15.47
2017-04-27T07:49:56.794Z,15.73
2017-04-27T07:52:23.879Z,14.75
2017-04-27T07:54:51.003Z,18.07
2017-04-27T07:57:18.154Z,16.80
2017-04-27T07:59:45.310Z,15.94
2017-04-27T08:02:12.401Z,16.06
2017-04-27T08:04:39.488Z,13.28
2017-04-27T08:07:07.366Z,16.08
2017-04-27T08:12:09.029Z,16.16
2017-04-27T08:14:36.155Z,15.67
2017-04-27T08:17:03.247Z,17.50
2017-04-27T08:19:31.093Z,14.72
2017-04-27T08:21:58.172Z,15.78
2017-04-27T08:24:26.025Z,17.90
2017-04-27T08:26:53.285Z,14.22
2017-04-27T08:29:20.519Z,16.98
2017-04-27T08:31:47.731Z,15.86
2017-04-27T08:34:15.575Z,14.02
2017-04-27T08:36:42.610Z,14.42
2017-04-27T08:39:09.754Z,16.57
2017-04-27T08:41:36.875Z,15.62
2017-04-27T08:44:03.927Z,12.62
2017-04-27T08:46:31.001Z,15.50
2017-04-27T08:48:58.043Z,14.38
2017-04-27T08:51:25.327Z,16.14
2017-04-27T08:53:52.402Z,16.47
2017-04-27T08:56:19.492Z,15.76
2017-04-27T08:58:47.307Z,15.44
2017-04-27T09:01:14.412Z,16.60
2017-04-27T09:03:42.277Z,16.00
2017-04-27T09:06:10.093Z,15.32
2017-04-27T09:08:37.233Z,13.75
2017-04-27T09:11:04.320Z,14.94
2017-04-27T09:13:31.388Z,15.92
2017-04-27T09:15:58.487Z,15.88
2017-04-27T09:18:25.543Z,17.72
2017-04-27T09:20:52.788Z,18.02
2017-04-27T09:23:19.870Z,17.42
2017-04-27T09:25:46.972Z,16.57
2017-04-27T09:28:14.039Z,17.78
2017-04-27T09:30:41.888Z,17.02
2017-04-27T09:33:08.941Z,44.48
2017-04-27T09:35:35.984Z,19.37
2017-04-27T09:38:03.122Z,18.57
2017-04-27T09:40:30.184Z,16.00
2017-04-27T09:42:57.244Z,18.30
2017-04-27T09:45:24.328Z,18.58
2017-04-27T09:47:52.210Z,15.77
2017-04-27T09:50:19.258Z,16.72
2017-04-27T09:52:47.109Z,16.43
2017-04-27T09:55:14.155Z,16.87
2017-04-27T09:57:41.220Z,16.32
2017-04-27T10:00:08.294Z,19.70
2017-04-27T10:02:36.095Z,16.00
2017-04-27T10:05:03.115Z,18.50
2017-04-27T10:07:30.170Z,19.87
2017-04-27T10:09:57.278Z,20.20
2017-04-27T10:12:24.767Z,17.80
2017-04-27T10:14:52.584Z,18.37
2017-04-27T10:17:19.791Z,16.55
2017-04-27T10:19:47.596Z,16.48
2017-04-27T10:22:15.373Z,17.37
2017-04-27T10:24:43.024Z,20.28
2017-04-27T10:27:10.077Z,19.03
2017-04-27T10:29:37.095Z,23.37
2017-04-27T10:32:04.138Z,20.05
2017-04-27T10:34:31.214Z,23.38
2017-04-27T10:36:59.052Z,22.15
2017-04-27T10:39:26.155Z,23.12
2017-04-27T10:41:54.040Z,20.97
2017-04-27T10:44:21.107Z,20.92
2017-04-27T10:46:48.199Z,22.50
2017-04-27T10:49:15.408Z,24.08
2017-04-27T10:51:42.503Z,25.82
2017-04-27T10:54:10.050Z,24.18
2017-04-27T10:56:37.349Z,26.68
2017-04-27T10:59:04.494Z,28.68
2017-04-27T11:01:31.592Z,30.90
2017-04-27T11:03:58.629Z,22.12
2017-04-27T11:06:25.711Z,27.33
2017-04-27T11:08:52.983Z,29.07
2017-04-27T11:11:20.247Z,23.93
2017-04-27T11:13:47.362Z,22.05
2017-04-27T11:16:14.507Z,26.20
2017-04-27T11:18:41.785Z,24.90
2017-04-27T11:21:08.886Z,24.17
2017-04-27T11:23:35.910Z,23.25
2017-04-27T11:26:02.981Z,22.90
2017-04-27T11:28:30.056Z,25.52
2017-04-27T11:30:57.100Z,25.87
2017-04-27T11:33:24.155Z,24.22
2017-04-27T11:35:51.996Z,22.90
2017-04-27T11:38:19.319Z,27.38
2017-04-27T11:40:46.876Z,21.90
2017-04-27T11:43:15.048Z,21.82
2017-04-27T11:45:42.852Z,21.13
2017-04-27T11:48:10.009Z,22.63
2017-04-27T11:50:37.067Z,21.10
2017-04-27T11:53:04.125Z,24.86
2017-04-27T11:55:31.163Z,23.46
2017-04-27T11:57:58.239Z,26.85
2017-04-27T12:00:25.303Z,21.02
2017-04-27T12:02:52.347Z,21.68
2017-04-27T12:05:19.631Z,22.40
2017-04-27T12:07:46.706Z,23.35
2017-04-27T12:10:15.037Z,22.72
2017-04-27T12:12:42.127Z,26.93
2017-04-27T12:15:16.178Z,22.83
2017-04-27T12:17:43.241Z,26.84
2017-04-27T12:20:10.281Z,24.13
2017-04-27T12:22:37.608Z,21.02
2017-04-27T12:25:04.686Z,24.44
2017-04-27T12:27:32.488Z,25.86
2017-04-27T12:29:59.570Z,23.78
2017-04-27T12:32:26.630Z,22.60
2017-04-27T12:34:53.708Z,23.26
2017-04-27T12:37:21.525Z,26.18
2017-04-27T12:39:48.581Z,22.88
2017-04-27T12:42:15.719Z,21.30
2017-04-27T12:44:42.829Z,20.84
2017-04-27T12:47:09.938Z,26.30
2017-04-27T12:49:37.019Z,21.96
2017-04-27T12:52:04.071Z,26.00
2017-04-27T12:54:31.148Z,22.68
2017-04-27T12:56:58.236Z,21.90
2017-04-27T12:59:25.441Z,20.88
2017-04-27T13:01:52.555Z,22.36
2017-04-27T13:04:19.670Z,19.90
2017-04-27T13:06:47.814Z,19.06
2017-04-27T13:09:14.858Z,21.70
2017-04-27T13:11:42.475Z,20.02
2017-04-27T13:14:10.307Z,21.92
2017-04-27T13:16:37.523Z,21.38
2017-04-27T13:19:04.600Z,18.88
2017-04-27T13:21:31.672Z,18.72
2017-04-27T13:23:58.752Z,19.54
2017-04-27T13:26:25.835Z,21.00
2017-04-27T13:28:52.929Z,19.30
2017-04-27T13:31:20.018Z,22.70
2017-04-27T13:33:47.840Z,20.06
2017-04-27T13:36:14.904Z,21.06
2017-04-27T13:38:41.963Z,22.58
2017-04-27T13:41:09.187Z,21.40
2017-04-27T13:43:36.288Z,19.44
2017-04-27T13:46:03.384Z,19.22
2017-04-27T13:48:30.492Z,21.36
2017-04-27T13:50:57.621Z,21.00
2017-04-27T13:53:24.700Z,20.96
2017-04-27T13:55:51.829Z,20.90
2017-04-27T13:58:18.930Z,25.94
2017-04-27T14:00:46.804Z,22.94
2017-04-27T14:03:14.660Z,22.30
2017-04-27T14:05:42.466Z,20.54
2017-04-27T14:08:09.561Z,23.34
2017-04-27T14:10:36.684Z,22.14
2017-04-27T14:13:05.709Z,22.56
2017-04-27T14:15:34.604Z,21.88
2017-04-27T14:18:03.552Z,21.62
2017-04-27T14:20:32.751Z,20.68
2017-04-27T14:23:01.364Z,21.78
2017-04-27T14:25:29.807Z,21.14
2017-04-27T14:27:58.152Z,21.44
2017-04-27T14:30:26.436Z,24.44
2017-04-27T14:32:55.850Z,23.02
2017-04-27T14:35:24.364Z,19.82
2017-04-27T14:37:53.051Z,24.50
2017-04-27T14:40:21.910Z,22.78
2017-04-27T14:42:51.347Z,25.20
2017-04-27T14:45:20.108Z,23.78
2017-04-27T14:47:49.415Z,22.00
2017-04-27T14:50:19.022Z,21.76
2017-04-27T14:52:47.410Z,20.26
2017-04-27T14:55:16.352Z,21.38
2017-04-27T14:57:45.505Z,23.16
2017-04-27T15:00:14.913Z,19.58
2017-04-27T15:02:43.446Z,20.16
2017-04-27T15:05:13.292Z,20.80
2017-04-27T15:07:41.326Z,22.32
2017-04-27T15:10:09.674Z,21.74
2017-04-27T15:12:37.924Z,21.80
2017-04-27T15:15:06.441Z,19.96
2017-04-27T15:17:34.722Z,22.06
2017-04-27T15:20:03.237Z,19.04
2017-04-27T15:22:31.797Z,23.04
2017-04-27T15:24:59.685Z,20.42
2017-04-27T15:27:29.724Z,21.00
2017-04-27T15:29:56.885Z,19.58
2017-04-27T15:32:24.761Z,23.76
2017-04-27T15:34:59.021Z,25.28
2017-04-27T15:37:26.157Z,23.04
2017-04-27T15:39:53.216Z,21.92
2017-04-27T15:42:20.304Z,22.04
2017-04-27T15:44:47.454Z,23.42
2017-04-27T15:47:14.581Z,24.08
2017-04-27T15:49:41.751Z,24.40
2017-04-27T15:52:08.775Z,22.48
2017-04-27T15:54:36.618Z,22.80
2017-04-27T15:57:03.767Z,24.62
2017-04-27T15:59:31.051Z,21.62
2017-04-27T16:01:58.875Z,25.92
2017-04-27T16:04:25.930Z,23.84
2017-04-27T16:06:52.980Z,26.62
2017-04-27T16:09:20.076Z,22.90
2017-04-27T16:11:48.206Z,23.56
2017-04-27T16:14:15.330Z,23.06
2017-04-27T16:16:42.423Z,22.60
2017-04-27T16:19:09.582Z,23.24
2017-04-27T16:21:36.665Z,23.46
2017-04-27T16:24:03.740Z,22.56
2017-04-27T16:26:31.585Z,22.48
2017-04-27T16:28:58.755Z,24.62
2017-04-27T16:31:26.563Z,22.10
2017-04-27T16:33:53.616Z,22.76
2017-04-27T16:36:20.719Z,22.36
2017-04-27T16:38:47.773Z,21.78
2017-04-27T16:41:14.864Z,19.98
2017-04-27T16:43:41.966Z,20.96
2017-04-27T16:46:09.051Z,23.62
2017-04-27T16:48:36.906Z,21.48
2017-04-27T16:51:03.987Z,16.24
2017-04-27T16:53:31.927Z,16.06
2017-04-27T16:55:59.046Z,14.00
2017-04-27T16:58:26.181Z,14.56
2017-04-27T17:00:53.384Z,14.42
2017-04-27T17:03:20.568Z,19.94
2017-04-27T17:05:48.451Z,17.98
2017-04-27T17:08:16.317Z,16.40
2017-04-27T17:10:44.234Z,15.26
2017-04-27T17:13:11.325Z,17.52
2017-04-27T17:15:38.438Z,14.20
2017-04-27T17:18:05.644Z,15.75
2017-04-27T17:20:32.732Z,15.16
2017-04-27T17:22:59.815Z,16.18
2017-04-27T17:25:26.968Z,16.54
2017-04-27T17:27:54.121Z,17.06
2017-04-27T17:30:21.284Z,14.96
2017-04-27T17:32:48.428Z,16.36
2017-04-27T17:35:15.572Z,17.04
2017-04-27T17:37:42.715Z,18.74
2017-04-27T17:40:09.870Z,19.74
2017-04-27T17:42:36.937Z,16.98
2017-04-27T17:45:04.061Z,16.76
2017-04-27T17:47:31.875Z,18.40
2017-04-27T17:49:58.973Z,18.54
2017-04-27T17:52:26.864Z,22.42
2017-04-27T17:54:53.986Z,21.28
2017-04-27T17:57:21.156Z,18.58
2017-04-27T17:59:48.242Z,20.02
2017-04-27T18:02:15.366Z,16.22
2017-04-27T18:04:42.470Z,15.78
2017-04-27T18:07:09.597Z,16.88
2017-04-27T18:09:36.750Z,15.12
2017-04-27T18:12:03.866Z,15.74
2017-04-27T18:14:31.307Z,15.28
2017-04-27T18:16:58.401Z,20.46
2017-04-27T18:19:25.491Z,18.54
2017-04-27T18:21:52.600Z,27.54
2017-04-27T18:24:19.738Z,19.50
2017-04-27T18:26:46.845Z,19.58
2017-04-27T18:29:13.997Z,18.26
2017-04-27T18:31:41.070Z,17.96
2017-04-27T18:34:08.357Z,22.16
2017-04-27T18:36:35.455Z,20.56
2017-04-27T18:39:03.276Z,22.82
2017-04-27T18:41:30.381Z,18.78
2017-04-27T18:43:58.148Z,19.62
2017-04-27T18:46:25.953Z,20.58
2017-04-27T18:48:53.277Z,22.72
2017-04-27T18:51:21.123Z,27.08
2017-04-27T18:53:48.298Z,30.46
2017-04-27T18:56:16.189Z,21.90
2017-04-27T18:58:43.260Z,21.72
2017-04-27T19:01:10.383Z,21.20
2017-04-27T19:03:37.702Z,20.80
2017-04-27T19:06:04.821Z,20.77
2017-04-27T19:08:31.972Z,21.37
2017-04-27T19:10:59.183Z,20.48
2017-04-27T19:13:26.212Z,20.84
2017-04-27T19:15:53.452Z,21.60
2017-04-27T19:18:20.568Z,21.00
2017-04-27T19:20:48.441Z,23.98
2017-04-27T19:23:16.335Z,25.84
2017-04-27T19:25:43.529Z,24.58
2017-04-27T19:28:10.668Z,25.30
2017-04-27T19:30:37.778Z,24.28
2017-04-27T19:33:05.665Z,24.84
2017-04-27T19:35:33.488Z,26.18
2017-04-27T19:38:00.635Z,24.98
2017-04-27T19:40:27.772Z,25.14
2017-04-27T19:42:55.127Z,25.00
2017-04-27T19:45:22.415Z,25.82
2017-04-27T19:47:49.949Z,28.26
2017-04-27T19:50:17.035Z,24.86
2017-04-27T19:52:44.121Z,25.58
2017-04-27T19:55:11.962Z,25.84
2017-04-27T19:57:39.133Z,26.25
2017-04-27T20:00:06.265Z,30.86
2017-04-27T20:02:33.392Z,31.58
2017-04-27T20:05:00.474Z,28.52
2017-04-27T20:07:27.690Z,31.54
2017-04-27T20:09:54.800Z,28.06
2017-04-27T20:12:21.966Z,29.78
2017-04-27T20:14:49.108Z,33.80
2017-04-27T20:17:16.257Z,30.85
2017-04-27T20:19:43.349Z,34.10
2017-04-27T20:22:11.149Z,36.86
2017-04-27T20:24:38.235Z,41.65
2017-04-27T20:27:05.352Z,35.42
2017-04-27T20:29:32.519Z,33.98
2017-04-27T20:31:59.640Z,39.30
2017-04-27T20:34:26.734Z,41.40
2017-04-27T20:36:53.895Z,33.78
2017-04-27T20:39:20.990Z,40.32
2017-04-27T20:41:48.853Z,39.43
2017-04-27T20:44:16.162Z,42.02
2017-04-27T20:46:43.381Z,40.30
2017-04-27T20:49:11.353Z,43.46
2017-04-27T20:51:39.221Z,35.77
2017-04-27T20:54:07.099Z,41.82
2017-04-27T20:56:34.905Z,38.23
2017-04-27T20:59:01.972Z,33.62
2017-04-27T21:01:29.104Z,31.13
2017-04-27T21:03:56.197Z,31.68
2017-04-27T21:06:23.446Z,30.08
2017-04-27T21:08:50.496Z,29.22
2017-04-27T21:11:17.696Z,30.05
2017-04-27T21:13:44.801Z,30.62
2017-04-27T21:16:11.976Z,31.48
2017-04-27T21:18:39.049Z,34.85
2017-04-27T21:21:06.135Z,34.57
2017-04-27T21:23:33.234Z,35.47
2017-04-27T21:26:00.354Z,34.10
2017-04-27T21:28:27.455Z,37.02
2017-04-27T21:30:54.594Z,39.28
2017-04-27T21:33:21.652Z,34.60
2017-04-27T21:35:48.759Z,31.32
2017-04-27T21:38:15.947Z,30.78
2017-04-27T21:40:50.021Z,35.60
2017-04-27T21:43:16.422Z,33.62
2017-04-27T21:45:43.580Z,38.32
2017-04-27T21:48:10.944Z,33.37
2017-04-27T21:50:38.057Z,33.58
2017-04-27T21:53:05.149Z,32.02
2017-04-27T21:55:32.297Z,34.87
2017-04-27T21:57:59.422Z,33.97
2017-04-27T22:00:26.517Z,36.95
2017-04-27T22:02:53.568Z,35.68
2017-04-27T22:05:20.622Z,39.55
2017-04-27T22:07:47.713Z,34.62
2017-04-27T22:10:14.861Z,36.46
2017-04-27T22:12:42.696Z,40.80
2017-04-27T22:15:09.912Z,40.50
2017-04-27T22:17:37.103Z,42.47
2017-04-27T22:20:04.196Z,41.33
2017-04-27T22:22:32.036Z,40.97
2017-04-27T22:24:59.120Z,35.05
2017-04-27T22:27:26.959Z,35.46
2017-04-27T22:29:54.080Z,34.48
2017-04-27T22:32:21.149Z,38.30
2017-04-27T22:34:48.268Z,38.48
2017-04-27T22:37:15.344Z,38.98
2017-04-27T22:39:42.375Z,42.60
2017-04-27T22:42:09.463Z,40.57
2017-04-27T22:44:36.577Z,41.62
2017-04-27T22:47:04.403Z,34.72
2017-04-27T22:49:31.464Z,36.05
2017-04-27T22:51:58.543Z,35.63
2017-04-27T22:54:26.366Z,34.48
2017-04-27T22:56:53.420Z,36.42
2017-04-27T22:59:20.516Z,34.32
2017-04-27T23:01:48.356Z,37.55
2017-04-27T23:04:15.507Z,37.13
2017-04-27T23:06:42.584Z,36.62
2017-04-27T23:09:09.660Z,40.23
2017-04-27T23:11:37.499Z,39.03
2017-04-27T23:14:04.635Z,35.23
2017-04-27T23:16:31.685Z,38.95
2017-04-27T23:18:58.726Z,45.84
2017-04-27T23:21:25.816Z,41.75
2017-04-27T23:23:52.892Z,45.98
2017-04-27T23:26:20.695Z,43.10
2017-04-27T23:28:47.888Z,41.10
2017-04-27T23:31:14.940Z,44.58
2017-04-27T23:33:42.059Z,42.32
2017-04-27T23:36:09.148Z,39.18
2017-04-27T23:38:36.232Z,39.33
2017-04-27T23:41:04.086Z,38.97
2017-04-27T23:43:31.152Z,40.75
2017-04-27T23:45:58.982Z,45.20
2017-04-27T23:48:26.100Z,44.28
2017-04-27T23:50:53.271Z,48.52
2017-04-27T23:53:20.347Z,42.67
2017-04-27T23:55:47.404Z,47.92
2017-04-27T23:58:14.570Z,40.57
